sensor_id;sensor_type;location;lat;lon;timestamp;pressure;altitude;pressure_sealevel;temperature;humidity
29935;BME280;19905;53.370;-6.314;2023-07-29T00:00:03;99684.66;;;13.63;100.00
29935;BME280;19905;53.370;-6.314;2023-07-29T00:02:34;99677.88;;;13.68;100.00
29935;BME280;19905;53.370;-6.314;2023-07-29T00:05:04;99680.34;;;13.62;100.00
29935;BME280;19905;53.370;-6.314;2023-07-29T00:07:32;99685.66;;;13.62;100.00
29935;BME280;19905;53.370;-6.314;2023-07-29T00:10:01;99679.19;;;13.56;100.00
29935;BME280;19905;53.370;-6.314;2023-07-29T00:12:30;99676.22;;;13.67;100.00
29935;BME280;19905;53.370;-6.314;2023-07-29T00:14:58;99677.84;;;13.52;100.00
29935;BME280;19905;53.370;-6.314;2023-07-29T00:17:27;99686.63;;;13.53;100.00
29935;BME280;19905;53.370;-6.314;2023-07-29T00:19:57;99678.31;;;13.47;100.00
29935;BME280;19905;53.370;-6.314;2023-07-29T00:22:26;99675.19;;;13.52;100.00
29935;BME280;19905;53.370;-6.314;2023-07-29T00:24:54;99670.50;;;13.46;100.00
29935;BME280;19905;53.370;-6.314;2023-07-29T00:27:25;99674.84;;;13.47;100.00
29935;BME280;19905;53.370;-6.314;2023-07-29T00:29:54;99675.66;;;13.47;100.00
29935;BME280;19905;53.370;-6.314;2023-07-29T00:32:22;99668.19;;;13.43;100.00
29935;BME280;19905;53.370;-6.314;2023-07-29T00:34:51;99665.84;;;13.40;100.00
29935;BME280;19905;53.370;-6.314;2023-07-29T00:37:21;99669.50;;;13.39;100.00
29935;BME280;19905;53.370;-6.314;2023-07-29T00:39:49;99666.84;;;13.39;100.00
29935;BME280;19905;53.370;-6.314;2023-07-29T00:42:18;99671.16;;;13.40;100.00
29935;BME280;19905;53.370;-6.314;2023-07-29T00:44:46;99674.47;;;13.42;100.00
29935;BME280;19905;53.370;-6.314;2023-07-29T00:47:16;99670.38;;;13.47;100.00
29935;BME280;19905;53.370;-6.314;2023-07-29T00:49:45;99668.19;;;13.43;100.00
29935;BME280;19905;53.370;-6.314;2023-07-29T00:52:14;99662.84;;;13.35;100.00
29935;BME280;19905;53.370;-6.314;2023-07-29T00:54:44;99669.00;;;13.35;100.00
29935;BME280;19905;53.370;-6.314;2023-07-29T00:57:13;99663.72;;;13.43;100.00
29935;BME280;19905;53.370;-6.314;2023-07-29T00:59:43;99665.69;;;13.41;100.00
29935;BME280;19905;53.370;-6.314;2023-07-29T01:02:12;99657.91;;;13.40;100.00
29935;BME280;19905;53.370;-6.314;2023-07-29T01:04:41;99658.25;;;13.45;100.00
29935;BME280;19905;53.370;-6.314;2023-07-29T01:07:14;99661.41;;;13.48;100.00
29935;BME280;19905;53.370;-6.314;2023-07-29T01:09:51;99665.75;;;13.58;100.00
29935;BME280;19905;53.370;-6.314;2023-07-29T01:12:29;99653.16;;;13.68;100.00
29935;BME280;19905;53.370;-6.314;2023-07-29T01:15:09;99638.53;;;13.64;100.00
29935;BME280;19905;53.370;-6.314;2023-07-29T01:17:42;99643.88;;;13.72;100.00
29935;BME280;19905;53.370;-6.314;2023-07-29T01:20:14;99635.75;;;13.73;100.00
29935;BME280;19905;53.370;-6.314;2023-07-29T01:22:43;99646.53;;;13.72;100.00
29935;BME280;19905;53.370;-6.314;2023-07-29T01:25:13;99648.66;;;13.68;100.00
29935;BME280;19905;53.370;-6.314;2023-07-29T01:27:42;99639.25;;;13.82;100.00
29935;BME280;19905;53.370;-6.314;2023-07-29T01:30:13;99648.34;;;13.71;100.00
29935;BME280;19905;53.370;-6.314;2023-07-29T01:32:53;99645.38;;;13.66;100.00
29935;BME280;19905;53.370;-6.314;2023-07-29T01:35:26;99642.53;;;13.68;100.00
29935;BME280;19905;53.370;-6.314;2023-07-29T01:37:59;99646.16;;;13.59;100.00
29935;BME280;19905;53.370;-6.314;2023-07-29T01:40:33;99635.06;;;13.63;100.00
29935;BME280;19905;53.370;-6.314;2023-07-29T01:43:03;99639.88;;;13.52;100.00
29935;BME280;19905;53.370;-6.314;2023-07-29T01:45:34;99635.38;;;13.44;100.00
29935;BME280;19905;53.370;-6.314;2023-07-29T01:48:05;99634.84;;;13.40;100.00
29935;BME280;19905;53.370;-6.314;2023-07-29T01:50:34;99639.63;;;13.37;100.00
29935;BME280;19905;53.370;-6.314;2023-07-29T01:53:02;99637.69;;;13.39;100.00
29935;BME280;19905;53.370;-6.314;2023-07-29T01:55:32;99632.19;;;13.40;100.00
29935;BME280;19905;53.370;-6.314;2023-07-29T01:58:00;99631.00;;;13.27;100.00
29935;BME280;19905;53.370;-6.314;2023-07-29T02:00:31;99630.34;;;13.33;100.00
29935;BME280;19905;53.370;-6.314;2023-07-29T02:02:59;99629.16;;;13.27;100.00
29935;BME280;19905;53.370;-6.314;2023-07-29T02:05:28;99633.97;;;13.23;100.00
29935;BME280;19905;53.370;-6.314;2023-07-29T02:07:57;99638.75;;;13.20;100.00
29935;BME280;19905;53.370;-6.314;2023-07-29T02:10:25;99639.69;;;13.11;100.00
29935;BME280;19905;53.370;-6.314;2023-07-29T02:12:57;99648.16;;;13.14;100.00
29935;BME280;19905;53.370;-6.314;2023-07-29T02:15:25;99653.94;;;13.10;100.00
29935;BME280;19905;53.370;-6.314;2023-07-29T02:17:54;99641.06;;;13.15;100.00
29935;BME280;19905;53.370;-6.314;2023-07-29T02:20:23;99647.31;;;13.14;100.00
29935;BME280;19905;53.370;-6.314;2023-07-29T02:22:52;99643.31;;;13.10;100.00
29935;BME280;19905;53.370;-6.314;2023-07-29T02:25:20;99648.66;;;13.18;100.00
29935;BME280;19905;53.370;-6.314;2023-07-29T02:27:49;99646.97;;;13.09;100.00
29935;BME280;19905;53.370;-6.314;2023-07-29T02:30:19;99647.66;;;13.11;100.00
29935;BME280;19905;53.370;-6.314;2023-07-29T02:32:49;99638.72;;;13.12;100.00
29935;BME280;19905;53.370;-6.314;2023-07-29T02:35:17;99646.13;;;13.08;100.00
29935;BME280;19905;53.370;-6.314;2023-07-29T02:37:46;99643.66;;;13.07;100.00
29935;BME280;19905;53.370;-6.314;2023-07-29T02:40:15;99637.34;;;13.08;100.00
29935;BME280;19905;53.370;-6.314;2023-07-29T02:42:43;99642.84;;;13.06;100.00
29935;BME280;19905;53.370;-6.314;2023-07-29T02:45:11;99640.31;;;13.05;100.00
29935;BME280;19905;53.370;-6.314;2023-07-29T02:47:41;99635.97;;;12.95;100.00
29935;BME280;19905;53.370;-6.314;2023-07-29T02:50:10;99635.16;;;12.95;100.00
29935;BME280;19905;53.370;-6.314;2023-07-29T02:52:39;99644.44;;;12.99;100.00
29935;BME280;19905;53.370;-6.314;2023-07-29T02:55:07;99638.16;;;13.00;100.00
29935;BME280;19905;53.370;-6.314;2023-07-29T02:57:36;99636.31;;;13.01;100.00
29935;BME280;19905;53.370;-6.314;2023-07-29T03:00:06;99629.53;;;12.98;100.00
29935;BME280;19905;53.370;-6.314;2023-07-29T03:02:35;99632.16;;;12.90;100.00
29935;BME280;19905;53.370;-6.314;2023-07-29T03:05:06;99626.66;;;12.91;100.00
29935;BME280;19905;53.370;-6.314;2023-07-29T03:07:35;99627.97;;;12.87;100.00
29935;BME280;19905;53.370;-6.314;2023-07-29T03:10:04;99624.66;;;12.85;100.00
29935;BME280;19905;53.370;-6.314;2023-07-29T03:12:33;99623.66;;;12.86;100.00
29935;BME280;19905;53.370;-6.314;2023-07-29T03:15:02;99619.88;;;12.89;100.00
29935;BME280;19905;53.370;-6.314;2023-07-29T03:17:31;99612.25;;;12.86;100.00
29935;BME280;19905;53.370;-6.314;2023-07-29T03:20:05;99609.59;;;12.86;100.00
29935;BME280;19905;53.370;-6.314;2023-07-29T03:22:34;99606.78;;;12.87;100.00
29935;BME280;19905;53.370;-6.314;2023-07-29T03:25:03;99606.78;;;12.87;100.00
29935;BME280;19905;53.370;-6.314;2023-07-29T03:27:33;99618.72;;;12.83;100.00
29935;BME280;19905;53.370;-6.314;2023-07-29T03:30:04;99603.81;;;12.90;100.00
29935;BME280;19905;53.370;-6.314;2023-07-29T03:32:33;99596.56;;;12.92;100.00
29935;BME280;19905;53.370;-6.314;2023-07-29T03:35:01;99609.75;;;12.84;100.00
29935;BME280;19905;53.370;-6.314;2023-07-29T03:37:32;99607.25;;;12.83;100.00
29935;BME280;19905;53.370;-6.314;2023-07-29T03:40:01;99604.59;;;12.83;100.00
29935;BME280;19905;53.370;-6.314;2023-07-29T03:42:31;99604.94;;;12.80;100.00
29935;BME280;19905;53.370;-6.314;2023-07-29T03:45:00;99610.91;;;12.82;100.00
29935;BME280;19905;53.370;-6.314;2023-07-29T03:47:28;99607.59;;;12.80;100.00
29935;BME280;19905;53.370;-6.314;2023-07-29T03:49:58;99602.59;;;12.77;100.00
29935;BME280;19905;53.370;-6.314;2023-07-29T03:52:26;99603.78;;;12.82;100.00
29935;BME280;19905;53.370;-6.314;2023-07-29T03:54:57;99605.59;;;12.82;100.00
29935;BME280;19905;53.370;-6.314;2023-07-29T03:57:25;99602.13;;;12.81;100.00
29935;BME280;19905;53.370;-6.314;2023-07-29T03:59:54;99599.28;;;12.83;100.00
29935;BME280;19905;53.370;-6.314;2023-07-29T04:02:22;99604.06;;;12.71;100.00
29935;BME280;19905;53.370;-6.314;2023-07-29T04:04:51;99610.03;;;12.73;100.00
29935;BME280;19905;53.370;-6.314;2023-07-29T04:07:20;99601.09;;;12.74;100.00
29935;BME280;19905;53.370;-6.314;2023-07-29T04:09:48;99602.34;;;12.62;100.00
29935;BME280;19905;53.370;-6.314;2023-07-29T04:12:18;99603.84;;;12.64;100.00
29935;BME280;19905;53.370;-6.314;2023-07-29T04:14:48;99602.06;;;12.65;100.00
29935;BME280;19905;53.370;-6.314;2023-07-29T04:17:17;99602.19;;;12.63;100.00
29935;BME280;19905;53.370;-6.314;2023-07-29T04:19:46;99607.66;;;12.62;100.00
29935;BME280;19905;53.370;-6.314;2023-07-29T04:22:16;99609.31;;;12.63;100.00
29935;BME280;19905;53.370;-6.314;2023-07-29T04:24:44;99598.53;;;12.56;100.00
29935;BME280;19905;53.370;-6.314;2023-07-29T04:27:12;99617.69;;;12.50;100.00
29935;BME280;19905;53.370;-6.314;2023-07-29T04:29:42;99608.28;;;12.56;100.00
29935;BME280;19905;53.370;-6.314;2023-07-29T04:32:11;99605.44;;;12.49;100.00
29935;BME280;19905;53.370;-6.314;2023-07-29T04:34:40;99603.66;;;12.58;100.00
29935;BME280;19905;53.370;-6.314;2023-07-29T04:37:08;99601.31;;;12.55;100.00
29935;BME280;19905;53.370;-6.314;2023-07-29T04:39:37;99617.84;;;12.49;100.00
29935;BME280;19905;53.370;-6.314;2023-07-29T04:42:06;99623.66;;;12.52;100.00
29935;BME280;19905;53.370;-6.314;2023-07-29T04:44:35;99619.19;;;12.53;100.00
29935;BME280;19905;53.370;-6.314;2023-07-29T04:47:05;99624.25;;;12.46;100.00
29935;BME280;19905;53.370;-6.314;2023-07-29T04:49:32;99614.19;;;12.50;100.00
29935;BME280;19905;53.370;-6.314;2023-07-29T04:52:01;99627.59;;;12.48;100.00
29935;BME280;19905;53.370;-6.314;2023-07-29T04:54:29;99627.13;;;12.53;100.00
29935;BME280;19905;53.370;-6.314;2023-07-29T04:56:58;99624.84;;;12.58;100.00
29935;BME280;19905;53.370;-6.314;2023-07-29T04:59:27;99628.78;;;12.54;100.00
29935;BME280;19905;53.370;-6.314;2023-07-29T05:01:55;99633.78;;;12.57;100.00
29935;BME280;19905;53.370;-6.314;2023-07-29T05:04:25;99623.97;;;12.49;100.00
29935;BME280;19905;53.370;-6.314;2023-07-29T05:06:54;99618.72;;;12.57;100.00
29935;BME280;19905;53.370;-6.314;2023-07-29T05:09:23;99613.78;;;12.62;100.00
29935;BME280;19905;53.370;-6.314;2023-07-29T05:11:55;99606.03;;;12.69;100.00
29935;BME280;19905;53.370;-6.314;2023-07-29T05:14:23;99605.88;;;12.70;100.00
29935;BME280;19905;53.370;-6.314;2023-07-29T05:16:52;99610.03;;;12.73;100.00
29935;BME280;19905;53.370;-6.314;2023-07-29T05:19:20;99614.19;;;12.76;100.00
29935;BME280;19905;53.370;-6.314;2023-07-29T05:21:50;99611.06;;;12.80;100.00
29935;BME280;19905;53.370;-6.314;2023-07-29T05:24:19;99612.06;;;12.87;100.00
29935;BME280;19905;53.370;-6.314;2023-07-29T05:26:47;99608.75;;;12.85;100.00
29935;BME280;19905;53.370;-6.314;2023-07-29T05:29:16;99596.16;;;12.87;100.00
29935;BME280;19905;53.370;-6.314;2023-07-29T05:31:45;99601.00;;;12.92;100.00
29935;BME280;19905;53.370;-6.314;2023-07-29T05:34:14;99606.94;;;12.86;100.00
29935;BME280;19905;53.370;-6.314;2023-07-29T05:36:43;99610.41;;;12.86;100.00
29935;BME280;19905;53.370;-6.314;2023-07-29T05:39:13;99594.69;;;12.85;100.00
29935;BME280;19905;53.370;-6.314;2023-07-29T05:41:42;99608.28;;;12.90;100.00
29935;BME280;19905;53.370;-6.314;2023-07-29T05:44:10;99588.44;;;12.94;100.00
29935;BME280;19905;53.370;-6.314;2023-07-29T05:46:39;99605.81;;;12.96;100.00
29935;BME280;19905;53.370;-6.314;2023-07-29T05:49:08;99601.50;;;12.95;100.00
29935;BME280;19905;53.370;-6.314;2023-07-29T05:51:36;99603.22;;;13.05;100.00
29935;BME280;19905;53.370;-6.314;2023-07-29T05:54:06;99609.03;;;13.08;100.00
29935;BME280;19905;53.370;-6.314;2023-07-29T05:56:36;99591.84;;;13.20;100.00
29935;BME280;19905;53.370;-6.314;2023-07-29T05:59:05;99589.41;;;13.35;100.00
29935;BME280;19905;53.370;-6.314;2023-07-29T06:01:34;99591.09;;;13.44;100.00
29935;BME280;19905;53.370;-6.314;2023-07-29T06:04:03;99584.47;;;13.48;100.00
29935;BME280;19905;53.370;-6.314;2023-07-29T06:06:31;99589.31;;;13.61;100.00
29935;BME280;19905;53.370;-6.314;2023-07-29T06:09:00;99574.72;;;13.57;100.00
29935;BME280;19905;53.370;-6.314;2023-07-29T06:11:29;99583.66;;;13.56;100.00
29935;BME280;19905;53.370;-6.314;2023-07-29T06:13:59;99583.31;;;13.43;100.00
29935;BME280;19905;53.370;-6.314;2023-07-29T06:16:28;99588.75;;;13.41;100.00
29935;BME280;19905;53.370;-6.314;2023-07-29T06:18:57;99594.22;;;13.40;100.00
29935;BME280;19905;53.370;-6.314;2023-07-29T06:21:25;99597.88;;;13.39;100.00
29935;BME280;19905;53.370;-6.314;2023-07-29T06:23:53;99606.00;;;13.45;100.00
29935;BME280;19905;53.370;-6.314;2023-07-29T06:26:22;99595.25;;;13.47;100.00
29935;BME280;19905;53.370;-6.314;2023-07-29T06:28:51;99602.03;;;13.50;100.00
29935;BME280;19905;53.370;-6.314;2023-07-29T06:31:21;99598.25;;;13.52;100.00
29935;BME280;19905;53.370;-6.314;2023-07-29T06:33:50;99608.50;;;13.55;100.00
29935;BME280;19905;53.370;-6.314;2023-07-29T06:36:18;99604.22;;;13.54;100.00
29935;BME280;19905;53.370;-6.314;2023-07-29T06:38:47;99599.22;;;13.51;100.00
29935;BME280;19905;53.370;-6.314;2023-07-29T06:41:15;99601.56;;;13.54;100.00
29935;BME280;19905;53.370;-6.314;2023-07-29T06:43:46;99607.88;;;13.61;100.00
29935;BME280;19905;53.370;-6.314;2023-07-29T06:46:15;99626.44;;;13.69;100.00
29935;BME280;19905;53.370;-6.314;2023-07-29T06:48:45;99608.22;;;13.83;100.00
29935;BME280;19905;53.370;-6.314;2023-07-29T06:51:14;99610.22;;;13.81;100.00
29935;BME280;19905;53.370;-6.314;2023-07-29T06:53:42;99628.13;;;13.70;100.00
29935;BME280;19905;53.370;-6.314;2023-07-29T06:56:11;99644.19;;;13.69;100.00
29935;BME280;19905;53.370;-6.314;2023-07-29T06:58:39;99620.31;;;13.69;100.00
29935;BME280;19905;53.370;-6.314;2023-07-29T07:01:07;99620.63;;;13.74;100.00
29935;BME280;19905;53.370;-6.314;2023-07-29T07:03:36;99612.38;;;13.77;100.00
29935;BME280;19905;53.370;-6.314;2023-07-29T07:06:08;99599.41;;;13.82;100.00
29935;BME280;19905;53.370;-6.314;2023-07-29T07:08:36;99623.50;;;13.81;100.00
29935;BME280;19905;53.370;-6.314;2023-07-29T07:11:05;99632.63;;;13.94;100.00
29935;BME280;19905;53.370;-6.314;2023-07-29T07:13:34;99617.69;;;13.93;100.00
29935;BME280;19905;53.370;-6.314;2023-07-29T07:16:03;99618.84;;;13.99;100.00
29935;BME280;19905;53.370;-6.314;2023-07-29T07:18:32;99621.31;;;13.92;100.00
29935;BME280;19905;53.370;-6.314;2023-07-29T07:21:00;99627.00;;;13.97;100.00
29935;BME280;19905;53.370;-6.314;2023-07-29T07:23:31;99614.53;;;14.06;100.00
29935;BME280;19905;53.370;-6.314;2023-07-29T07:25:59;99619.50;;;14.09;100.00
29935;BME280;19905;53.370;-6.314;2023-07-29T07:28:28;99615.53;;;14.13;100.00
29935;BME280;19905;53.370;-6.314;2023-07-29T07:30:57;99604.72;;;14.23;100.00
29935;BME280;19905;53.370;-6.314;2023-07-29T07:33:26;99608.72;;;14.19;100.00
29935;BME280;19905;53.370;-6.314;2023-07-29T07:35:54;99606.38;;;14.32;100.00
29935;BME280;19905;53.370;-6.314;2023-07-29T07:38:23;99599.56;;;14.38;100.00
29935;BME280;19905;53.370;-6.314;2023-07-29T07:40:55;99621.31;;;14.33;100.00
29935;BME280;19905;53.370;-6.314;2023-07-29T07:43:24;99625.28;;;14.45;100.00
29935;BME280;19905;53.370;-6.314;2023-07-29T07:45:58;99629.75;;;14.61;100.00
29935;BME280;19905;53.370;-6.314;2023-07-29T07:48:27;99629.09;;;14.67;100.00
29935;BME280;19905;53.370;-6.314;2023-07-29T07:50:55;99643.41;;;14.58;100.00
29935;BME280;19905;53.370;-6.314;2023-07-29T07:53:24;99630.63;;;14.62;100.00
29935;BME280;19905;53.370;-6.314;2023-07-29T07:55:54;99632.09;;;14.64;100.00
29935;BME280;19905;53.370;-6.314;2023-07-29T07:58:23;99646.84;;;14.75;100.00
29935;BME280;19905;53.370;-6.314;2023-07-29T08:00:52;99635.69;;;14.80;100.00
29935;BME280;19905;53.370;-6.314;2023-07-29T08:03:22;99636.50;;;14.88;100.00
29935;BME280;19905;53.370;-6.314;2023-07-29T08:05:51;99659.97;;;14.85;100.00
29935;BME280;19905;53.370;-6.314;2023-07-29T08:08:20;99637.56;;;14.71;100.00
29935;BME280;19905;53.370;-6.314;2023-07-29T08:10:48;99653.97;;;14.83;100.00
29935;BME280;19905;53.370;-6.314;2023-07-29T08:13:18;99665.75;;;14.88;100.00
29935;BME280;19905;53.370;-6.314;2023-07-29T08:15:47;99634.16;;;14.93;100.00
29935;BME280;19905;53.370;-6.314;2023-07-29T08:18:16;99661.44;;;14.87;100.00
29935;BME280;19905;53.370;-6.314;2023-07-29T08:20:52;99653.13;;;14.90;100.00
29935;BME280;19905;53.370;-6.314;2023-07-29T08:23:22;99630.84;;;14.91;100.00
29935;BME280;19905;53.370;-6.314;2023-07-29T08:25:52;99644.47;;;14.88;100.00
29935;BME280;19905;53.370;-6.314;2023-07-29T08:28:24;99649.44;;;14.99;100.00
29935;BME280;19905;53.370;-6.314;2023-07-29T08:30:53;99627.13;;;15.09;100.00
29935;BME280;19905;53.370;-6.314;2023-07-29T08:33:21;99634.09;;;15.10;100.00
29935;BME280;19905;53.370;-6.314;2023-07-29T08:35:50;99629.38;;;15.28;100.00
29935;BME280;19905;53.370;-6.314;2023-07-29T08:38:20;99657.03;;;15.50;100.00
29935;BME280;19905;53.370;-6.314;2023-07-29T08:40:58;99667.84;;;15.48;100.00
29935;BME280;19905;53.370;-6.314;2023-07-29T08:43:34;99638.34;;;15.58;100.00
29935;BME280;19905;53.370;-6.314;2023-07-29T08:46:04;99636.09;;;15.78;100.00
29935;BME280;19905;53.370;-6.314;2023-07-29T08:48:41;99634.31;;;15.93;100.00
29935;BME280;19905;53.370;-6.314;2023-07-29T08:51:11;99635.13;;;16.17;100.00
29935;BME280;19905;53.370;-6.314;2023-07-29T08:53:40;99639.81;;;16.15;100.00
29935;BME280;19905;53.370;-6.314;2023-07-29T08:56:13;99613.66;;;15.95;100.00
29935;BME280;19905;53.370;-6.314;2023-07-29T08:58:45;99643.88;;;15.80;100.00
29935;BME280;19905;53.370;-6.314;2023-07-29T09:01:15;99640.66;;;15.92;100.00
29935;BME280;19905;53.370;-6.314;2023-07-29T09:03:46;99628.97;;;15.93;100.00
29935;BME280;19905;53.370;-6.314;2023-07-29T09:06:18;99652.13;;;15.93;100.00
29935;BME280;19905;53.370;-6.314;2023-07-29T09:08:51;99655.56;;;16.01;100.00
29935;BME280;19905;53.370;-6.314;2023-07-29T09:11:27;99637.19;;;16.07;100.00
29935;BME280;19905;53.370;-6.314;2023-07-29T09:13:57;99649.78;;;16.36;100.00
29935;BME280;19905;53.370;-6.314;2023-07-29T09:16:26;99632.63;;;16.53;100.00
29935;BME280;19905;53.370;-6.314;2023-07-29T09:19:01;99636.69;;;16.64;100.00
29935;BME280;19905;53.370;-6.314;2023-07-29T09:21:31;99637.75;;;16.77;100.00
29935;BME280;19905;53.370;-6.314;2023-07-29T09:24:03;99633.16;;;16.86;100.00
29935;BME280;19905;53.370;-6.314;2023-07-29T09:26:35;99627.34;;;16.97;100.00
29935;BME280;19905;53.370;-6.314;2023-07-29T09:29:06;99612.06;;;17.06;100.00
29935;BME280;19905;53.370;-6.314;2023-07-29T09:31:36;99625.03;;;17.09;100.00
29935;BME280;19905;53.370;-6.314;2023-07-29T09:34:06;99622.47;;;16.86;100.00
29935;BME280;19905;53.370;-6.314;2023-07-29T09:36:35;99630.75;;;16.91;100.00
29935;BME280;19905;53.370;-6.314;2023-07-29T09:39:10;99632.56;;;16.76;100.00
29935;BME280;19905;53.370;-6.314;2023-07-29T09:41:47;99638.06;;;16.60;100.00
29935;BME280;19905;53.370;-6.314;2023-07-29T09:44:24;99637.78;;;16.55;100.00
29935;BME280;19905;53.370;-6.314;2023-07-29T09:46:57;99641.16;;;16.48;100.00
29935;BME280;19905;53.370;-6.314;2023-07-29T09:49:27;99641.75;;;16.59;100.00
29935;BME280;19905;53.370;-6.314;2023-07-29T09:51:56;99662.44;;;16.19;100.00
29935;BME280;19905;53.370;-6.314;2023-07-29T09:54:30;99673.25;;;15.71;100.00
29935;BME280;19905;53.370;-6.314;2023-07-29T09:56:59;99695.81;;;15.44;100.00
29935;BME280;19905;53.370;-6.314;2023-07-29T09:59:33;99713.50;;;15.29;100.00
29935;BME280;19905;53.370;-6.314;2023-07-29T10:02:09;99684.63;;;15.18;100.00
29935;BME280;19905;53.370;-6.314;2023-07-29T10:04:41;99709.91;;;15.14;100.00
29935;BME280;19905;53.370;-6.314;2023-07-29T10:07:11;99721.19;;;15.16;100.00
29935;BME280;19905;53.370;-6.314;2023-07-29T10:09:42;99726.50;;;15.16;100.00
29935;BME280;19905;53.370;-6.314;2023-07-29T10:12:13;99739.81;;;15.16;100.00
29935;BME280;19905;53.370;-6.314;2023-07-29T10:15:03;99721.91;;;15.49;100.00
29935;BME280;19905;53.370;-6.314;2023-07-29T10:17:36;99720.72;;;15.91;100.00
29935;BME280;19905;53.370;-6.314;2023-07-29T10:20:20;99717.94;;;16.30;100.00
29935;BME280;19905;53.370;-6.314;2023-07-29T10:22:49;99704.34;;;16.63;100.00
29935;BME280;19905;53.370;-6.314;2023-07-29T10:25:22;99697.00;;;16.65;100.00
29935;BME280;19905;53.370;-6.314;2023-07-29T10:28:01;99694.63;;;16.70;100.00
29935;BME280;19905;53.370;-6.314;2023-07-29T10:30:39;99686.41;;;16.57;100.00
29935;BME280;19905;53.370;-6.314;2023-07-29T10:33:09;99672.50;;;16.46;100.00
29935;BME280;19905;53.370;-6.314;2023-07-29T10:35:48;99678.25;;;16.35;100.00
29935;BME280;19905;53.370;-6.314;2023-07-29T10:38:23;99682.41;;;16.38;100.00
29935;BME280;19905;53.370;-6.314;2023-07-29T10:40:55;99677.13;;;16.52;100.00
29935;BME280;19905;53.370;-6.314;2023-07-29T10:43:40;99680.22;;;16.41;100.00
29935;BME280;19905;53.370;-6.314;2023-07-29T10:47:04;99687.94;;;16.36;100.00
29935;BME280;19905;53.370;-6.314;2023-07-29T10:50:01;99683.13;;;16.69;100.00
29935;BME280;19905;53.370;-6.314;2023-07-29T10:55:57;99677.56;;;16.94;100.00
29935;BME280;19905;53.370;-6.314;2023-07-29T10:58:58;99677.66;;;17.00;100.00
29935;BME280;19905;53.370;-6.314;2023-07-29T11:02:06;99657.97;;;17.16;100.00
29935;BME280;19905;53.370;-6.314;2023-07-29T11:05:04;99679.59;;;17.07;100.00
29935;BME280;19905;53.370;-6.314;2023-07-29T11:08:20;99657.16;;;16.86;100.00
29935;BME280;19905;53.370;-6.314;2023-07-29T11:14:37;99680.63;;;16.91;100.00
29935;BME280;19905;53.370;-6.314;2023-07-29T11:17:34;99678.56;;;17.22;100.00
29935;BME280;19905;53.370;-6.314;2023-07-29T11:20:36;99685.09;;;17.35;100.00
29935;BME280;19905;53.370;-6.314;2023-07-29T11:23:36;99713.88;;;17.69;100.00
29935;BME280;19905;53.370;-6.314;2023-07-29T11:26:08;99677.09;;;17.71;100.00
29935;BME280;19905;53.370;-6.314;2023-07-29T11:28:40;99672.91;;;17.98;100.00
29935;BME280;19905;53.370;-6.314;2023-07-29T11:31:11;99668.63;;;18.25;100.00
29935;BME280;19905;53.370;-6.314;2023-07-29T11:33:44;99670.25;;;18.47;100.00
29935;BME280;19905;53.370;-6.314;2023-07-29T11:36:24;99688.94;;;18.19;100.00
29935;BME280;19905;53.370;-6.314;2023-07-29T11:38:54;99678.66;;;18.44;100.00
29935;BME280;19905;53.370;-6.314;2023-07-29T11:41:33;99673.50;;;18.92;100.00
29935;BME280;19905;53.370;-6.314;2023-07-29T11:44:10;99668.97;;;18.93;100.00
29935;BME280;19905;53.370;-6.314;2023-07-29T11:46:45;99667.63;;;18.82;100.00
29935;BME280;19905;53.370;-6.314;2023-07-29T11:49:32;99662.38;;;18.95;100.00
29935;BME280;19905;53.370;-6.314;2023-07-29T11:52:06;99651.28;;;18.98;100.00
29935;BME280;19905;53.370;-6.314;2023-07-29T11:54:38;99659.78;;;19.09;100.00
29935;BME280;19905;53.370;-6.314;2023-07-29T11:57:23;99652.47;;;18.89;100.00
29935;BME280;19905;53.370;-6.314;2023-07-29T11:59:53;99654.13;;;18.90;100.00
29935;BME280;19905;53.370;-6.314;2023-07-29T12:02:23;99683.88;;;18.10;100.00
29935;BME280;19905;53.370;-6.314;2023-07-29T12:04:55;99669.41;;;17.97;100.00
29935;BME280;19905;53.370;-6.314;2023-07-29T12:07:25;99681.38;;;18.01;100.00
29935;BME280;19905;53.370;-6.314;2023-07-29T12:09:54;99671.56;;;17.87;100.00
29935;BME280;19905;53.370;-6.314;2023-07-29T12:12:23;99673.09;;;18.46;100.00
29935;BME280;19905;53.370;-6.314;2023-07-29T12:14:54;99665.94;;;19.02;100.00
29935;BME280;19905;53.370;-6.314;2023-07-29T12:17:23;99654.50;;;19.76;100.00
29935;BME280;19905;53.370;-6.314;2023-07-29T12:19:55;99660.16;;;20.21;100.00
29935;BME280;19905;53.370;-6.314;2023-07-29T12:22:25;99644.66;;;20.10;100.00
29935;BME280;19905;53.370;-6.314;2023-07-29T12:24:55;99664.38;;;19.69;100.00
29935;BME280;19905;53.370;-6.314;2023-07-29T12:27:24;99651.91;;;19.48;100.00
29935;BME280;19905;53.370;-6.314;2023-07-29T12:29:55;99646.94;;;19.39;100.00
29935;BME280;19905;53.370;-6.314;2023-07-29T12:32:29;99645.06;;;19.94;100.00
29935;BME280;19905;53.370;-6.314;2023-07-29T12:34:59;99648.78;;;19.99;100.00
29935;BME280;19905;53.370;-6.314;2023-07-29T12:37:31;99646.31;;;20.04;100.00
29935;BME280;19905;53.370;-6.314;2023-07-29T12:40:00;99640.78;;;19.51;100.00
29935;BME280;19905;53.370;-6.314;2023-07-29T12:42:29;99645.47;;;19.36;100.00
29935;BME280;19905;53.370;-6.314;2023-07-29T12:44:57;99647.50;;;19.21;100.00
29935;BME280;19905;53.370;-6.314;2023-07-29T12:47:26;99654.66;;;19.14;100.00
29935;BME280;19905;53.370;-6.314;2023-07-29T12:49:56;99653.25;;;18.83;100.00
29935;BME280;19905;53.370;-6.314;2023-07-29T12:52:26;99699.03;;;18.45;100.00
29935;BME280;19905;53.370;-6.314;2023-07-29T12:54:54;99846.56;;;15.85;100.00
29935;BME280;19905;53.370;-6.314;2023-07-29T12:57:23;99874.66;;;14.91;100.00
29935;BME280;19905;53.370;-6.314;2023-07-29T12:59:55;99881.34;;;14.36;100.00
29935;BME280;19905;53.370;-6.314;2023-07-29T13:02:24;99889.78;;;14.32;100.00
29935;BME280;19905;53.370;-6.314;2023-07-29T13:04:52;99889.06;;;14.56;100.00
29935;BME280;19905;53.370;-6.314;2023-07-29T13:07:21;99904.00;;;14.57;100.00